Carroll, New Hampshire
Current Conditions -  °F | °C
As of 1:52 AM on Thursday 23 Oct 2014 (Local Time) from KHIE Reporting Station
Overcast Overcast  
Wind Chill: 43°   Ceiling: 2200
Heat Index: 47°   Visibility: 10mi
Dew Point: 44°   Wind: 9mph
Humidity: 90%   Direction: 40°NE
Pressure: 29.98"   Gusts: NA
Location:  44.3374°N, 71.528°W
Report Text: KHIE 230552Z AUTO 04008KT 10SM OVC022 08/07 A2998 RMK AO2 RAB0453E29 SLP158 P0004 60007 T00830067 10094 20083 58018
Loading
Personal Weather Stations






























Interactive Weather Map
Tropical Storm Tracking
New forecast layout! Learn more

10-Day Weather Forecast

Advertisements
Track Severe Weather on mobile